createdAt,value
2023-02-21T00:00:53.677Z,9.60
2023-02-21T00:03:38.909Z,9.50
2023-02-21T00:06:27.470Z,9.50
2023-02-21T00:09:13.182Z,9.50
2023-02-21T00:12:03.479Z,9.50
2023-02-21T00:14:48.606Z,9.50
2023-02-21T00:17:34.266Z,9.40
2023-02-21T00:20:19.756Z,9.40
2023-02-21T00:23:05.381Z,9.30
2023-02-21T00:25:50.974Z,9.20
2023-02-21T00:28:36.493Z,9.20
2023-02-21T00:31:24.058Z,9.10
2023-02-21T00:34:11.724Z,9.10
2023-02-21T00:36:58.991Z,9.10
2023-02-21T00:39:44.378Z,9.10
2023-02-21T00:42:29.855Z,9.10
2023-02-21T00:45:15.212Z,9.10
2023-02-21T00:48:00.614Z,9.10
2023-02-21T00:50:45.885Z,9.20
2023-02-21T00:53:31.045Z,9.20
2023-02-21T00:56:16.266Z,9.30
2023-02-21T00:59:01.500Z,9.30
2023-02-21T01:01:47.122Z,9.30
2023-02-21T01:04:32.435Z,9.40
2023-02-21T01:07:17.947Z,9.40
2023-02-21T01:10:03.313Z,9.40
2023-02-21T01:12:48.668Z,9.40
2023-02-21T01:15:34.491Z,9.40
2023-02-21T01:18:19.911Z,9.40
2023-02-21T01:21:05.243Z,9.50
2023-02-21T01:23:53.120Z,9.50
2023-02-21T01:26:39.552Z,9.50
2023-02-21T01:29:24.855Z,9.60
2023-02-21T01:32:11.704Z,9.60
2023-02-21T01:34:57.980Z,9.60
2023-02-21T01:37:43.208Z,9.60
2023-02-21T01:40:33.951Z,9.60
2023-02-21T01:43:20.616Z,9.50
2023-02-21T01:46:08.261Z,9.50
2023-02-21T01:48:55.078Z,9.50
2023-02-21T01:51:45.564Z,9.50
2023-02-21T01:54:31.244Z,9.50
2023-02-21T01:57:19.435Z,9.50
2023-02-21T02:00:07.468Z,9.40
2023-02-21T02:03:15.616Z,9.50
2023-02-21T02:06:06.495Z,9.50
2023-02-21T02:08:52.081Z,9.50
2023-02-21T02:12:08.382Z,9.50
2023-02-21T02:15:02.552Z,9.60
2023-02-21T02:18:09.877Z,9.70
2023-02-21T02:21:06.736Z,9.80
2023-02-21T02:23:39.527Z,9.80
2023-02-21T02:26:18.242Z,9.80
2023-02-21T02:28:56.919Z,9.80
2023-02-21T02:31:40.291Z,9.90
2023-02-21T02:34:41.723Z,9.90
2023-02-21T02:37:29.049Z,9.90
2023-02-21T02:40:21.719Z,9.80
2023-02-21T02:43:17.104Z,9.70
2023-02-21T02:45:49.478Z,9.60
2023-02-21T02:48:25.147Z,9.60
2023-02-21T02:50:53.026Z,9.50
2023-02-21T02:53:25.332Z,9.40
2023-02-21T02:55:57.405Z,9.40
2023-02-21T02:58:30.872Z,9.30
2023-02-21T03:01:35.536Z,9.30
2023-02-21T03:04:09.370Z,9.20
2023-02-21T03:06:54.571Z,9.10
2023-02-21T03:09:38.787Z,9.00
2023-02-21T03:12:42.996Z,9.00
2023-02-21T03:15:20.481Z,9.00
2023-02-21T03:17:56.840Z,9.00
2023-02-21T03:20:26.134Z,9.00
2023-02-21T03:22:55.830Z,9.00
2023-02-21T03:25:24.704Z,9.00
2023-02-21T03:27:55.748Z,9.00
2023-02-21T03:30:25.630Z,9.00
2023-02-21T03:32:55.099Z,9.10
2023-02-21T03:35:29.356Z,9.10
2023-02-21T03:37:58.297Z,9.10
2023-02-21T03:40:31.925Z,9.10
2023-02-21T03:43:02.046Z,9.20
2023-02-21T03:45:35.514Z,9.20
2023-02-21T03:48:07.253Z,9.20
2023-02-21T03:50:35.921Z,9.20
2023-02-21T03:53:03.458Z,9.20
2023-02-21T03:55:31.628Z,9.30
2023-02-21T03:58:01.401Z,9.30
2023-02-21T04:00:29.886Z,9.30
2023-02-21T04:02:56.918Z,9.30
2023-02-21T04:05:33.908Z,9.30
2023-02-21T04:08:01.361Z,9.30
2023-02-21T04:10:28.189Z,9.30
2023-02-21T04:12:55.902Z,9.20
2023-02-21T04:15:22.722Z,9.20
2023-02-21T04:17:49.496Z,9.20
2023-02-21T04:20:16.460Z,9.20
2023-02-21T04:23:03.090Z,9.20
2023-02-21T04:25:31.425Z,9.10
2023-02-21T04:28:03.453Z,9.10
2023-02-21T04:30:30.332Z,9.10
2023-02-21T04:32:57.277Z,9.10
2023-02-21T04:35:24.222Z,9.00
2023-02-21T04:37:51.590Z,9.00
2023-02-21T04:40:18.804Z,9.00
2023-02-21T04:42:45.537Z,9.00
2023-02-21T04:45:15.560Z,9.00
2023-02-21T04:47:42.399Z,9.00
2023-02-21T04:50:09.377Z,9.00
2023-02-21T04:52:36.153Z,9.00
2023-02-21T04:55:03.022Z,9.00
2023-02-21T04:57:29.760Z,9.00
2023-02-21T04:59:58.381Z,9.00
2023-02-21T05:02:25.973Z,8.90
2023-02-21T05:04:52.842Z,8.80
2023-02-21T05:07:19.834Z,8.60
2023-02-21T05:09:46.717Z,8.50
2023-02-21T05:12:13.728Z,8.40
2023-02-21T05:14:42.284Z,8.30
2023-02-21T05:17:10.022Z,8.30
2023-02-21T05:19:36.825Z,8.20
2023-02-21T05:22:06.549Z,8.20
2023-02-21T05:24:34.384Z,8.20
2023-02-21T05:27:01.333Z,8.10
2023-02-21T05:29:28.139Z,8.10
2023-02-21T05:31:54.926Z,8.20
2023-02-21T05:34:21.915Z,8.30
2023-02-21T05:36:48.689Z,8.30
2023-02-21T05:39:15.564Z,8.30
2023-02-21T05:41:51.991Z,8.30
2023-02-21T05:44:18.782Z,8.30
2023-02-21T05:46:46.070Z,8.20
2023-02-21T05:49:13.236Z,8.10
2023-02-21T05:51:42.916Z,8.00
2023-02-21T05:54:15.102Z,7.90
2023-02-21T05:56:43.261Z,7.90
2023-02-21T05:59:11.015Z,7.70
2023-02-21T06:01:38.166Z,7.70
2023-02-21T06:04:07.723Z,7.60
2023-02-21T06:06:38.377Z,7.70
2023-02-21T06:09:06.169Z,7.70
2023-02-21T06:11:35.177Z,7.70
2023-02-21T06:14:05.897Z,7.80
2023-02-21T06:16:34.797Z,7.80
2023-02-21T06:19:02.507Z,7.90
2023-02-21T06:21:29.495Z,8.00
2023-02-21T06:23:56.514Z,8.00
2023-02-21T06:26:23.800Z,8.00
2023-02-21T06:28:51.216Z,8.00
2023-02-21T06:31:19.217Z,7.90
2023-02-21T06:33:48.044Z,7.80
2023-02-21T06:36:19.325Z,7.80
2023-02-21T06:38:51.316Z,7.70
2023-02-21T06:41:20.480Z,7.70
2023-02-21T06:43:47.308Z,7.60
2023-02-21T06:46:19.142Z,7.60
2023-02-21T06:48:45.927Z,7.50
2023-02-21T06:51:14.709Z,7.50
2023-02-21T06:53:42.511Z,7.40
2023-02-21T06:56:09.631Z,7.50
2023-02-21T06:58:36.768Z,7.50
2023-02-21T07:01:03.701Z,7.50
2023-02-21T07:03:30.484Z,7.60
2023-02-21T07:05:57.207Z,7.70
2023-02-21T07:08:25.857Z,7.80
2023-02-21T07:10:52.830Z,7.80
2023-02-21T07:13:21.520Z,7.80
2023-02-21T07:15:49.309Z,7.80
2023-02-21T07:18:16.033Z,7.90
2023-02-21T07:20:42.835Z,8.00
2023-02-21T07:23:10.092Z,8.00
2023-02-21T07:25:36.863Z,8.10
2023-02-21T07:28:04.438Z,8.40
2023-02-21T07:30:31.978Z,8.70
2023-02-21T07:32:59.145Z,8.80
2023-02-21T07:35:26.243Z,8.90
2023-02-21T07:38:06.298Z,8.90
2023-02-21T07:40:53.579Z,9.00
2023-02-21T07:43:20.511Z,9.00
2023-02-21T07:45:47.296Z,9.10
2023-02-21T07:48:14.552Z,9.10
2023-02-21T07:50:42.378Z,9.10
2023-02-21T07:53:11.268Z,9.10
2023-02-21T07:55:38.579Z,9.20
2023-02-21T07:58:06.023Z,9.20
2023-02-21T08:00:32.861Z,9.20
2023-02-21T08:03:02.578Z,9.30
2023-02-21T08:05:29.315Z,9.40
2023-02-21T08:07:56.082Z,9.50
2023-02-21T08:10:27.712Z,9.50
2023-02-21T08:12:54.535Z,9.60
2023-02-21T08:15:21.326Z,9.60
2023-02-21T08:17:49.815Z,9.60
2023-02-21T08:20:16.906Z,9.50
2023-02-21T08:22:43.769Z,9.50
2023-02-21T08:25:11.939Z,9.50
2023-02-21T08:27:40.744Z,9.50
2023-02-21T08:30:09.585Z,9.60
2023-02-21T08:32:36.730Z,9.60
2023-02-21T08:35:06.170Z,9.50
2023-02-21T08:37:36.291Z,9.50
2023-02-21T08:40:04.552Z,9.60
2023-02-21T08:42:31.341Z,9.60
2023-02-21T08:44:58.131Z,9.70
2023-02-21T08:47:24.898Z,9.80
2023-02-21T08:49:51.806Z,10.00
2023-02-21T08:52:21.703Z,10.10
2023-02-21T08:54:49.042Z,10.10
2023-02-21T08:57:15.887Z,10.20
2023-02-21T08:59:45.111Z,10.30
2023-02-21T09:02:19.704Z,10.30
2023-02-21T09:04:47.299Z,10.40
2023-02-21T09:07:19.619Z,10.40
2023-02-21T09:09:46.761Z,10.60
2023-02-21T09:12:13.548Z,10.60
2023-02-21T09:14:42.061Z,10.70
2023-02-21T09:17:11.560Z,10.70
2023-02-21T09:19:44.505Z,10.80
2023-02-21T09:22:11.511Z,11.00
2023-02-21T09:24:38.980Z,11.10
2023-02-21T09:27:06.666Z,11.30
2023-02-21T09:29:45.370Z,11.60
2023-02-21T09:32:13.596Z,11.80
2023-02-21T09:34:40.373Z,12.10
2023-02-21T09:37:07.252Z,12.10
2023-02-21T09:39:36.721Z,12.00
2023-02-21T09:42:03.622Z,11.90
2023-02-21T09:44:30.731Z,11.90
2023-02-21T09:47:05.867Z,11.80
2023-02-21T09:49:40.581Z,11.70
2023-02-21T09:52:24.564Z,11.60
2023-02-21T09:54:57.077Z,11.60
2023-02-21T09:57:23.931Z,11.60
2023-02-21T09:59:50.766Z,11.60
2023-02-21T10:02:43.066Z,11.70
2023-02-21T10:05:24.526Z,11.70
2023-02-21T10:08:12.915Z,12.00
2023-02-21T10:10:49.757Z,12.20
2023-02-21T10:13:33.555Z,12.50
2023-02-21T10:16:17.323Z,12.80
2023-02-21T10:18:48.399Z,13.80
2023-02-21T10:21:38.359Z,14.80
2023-02-21T10:24:13.782Z,15.60
2023-02-21T10:26:44.084Z,15.60
2023-02-21T10:29:26.771Z,15.50
2023-02-21T10:32:03.046Z,15.30
2023-02-21T10:34:32.244Z,15.20
2023-02-21T10:37:25.663Z,15.90
2023-02-21T10:40:02.151Z,17.10
2023-02-21T10:42:39.554Z,18.10
2023-02-21T10:45:08.776Z,18.60
2023-02-21T10:48:09.040Z,19.10
2023-02-21T10:50:57.681Z,19.90
2023-02-21T10:53:31.627Z,20.70
2023-02-21T10:56:19.629Z,21.20
2023-02-21T10:58:59.555Z,21.50
2023-02-21T11:01:26.330Z,21.80
2023-02-21T11:03:56.859Z,21.80
2023-02-21T11:06:38.812Z,21.90
2023-02-21T11:09:27.187Z,21.40
2023-02-21T11:12:16.346Z,20.50
2023-02-21T11:14:53.250Z,19.90
2023-02-21T11:17:21.304Z,19.40
2023-02-21T11:19:58.557Z,18.80
2023-02-21T11:22:39.346Z,18.50
2023-02-21T11:25:12.093Z,18.40
2023-02-21T11:27:39.657Z,18.40
2023-02-21T11:30:20.991Z,18.50
2023-02-21T11:32:56.997Z,18.60
2023-02-21T11:35:35.462Z,18.50
2023-02-21T11:38:05.861Z,18.30
2023-02-21T11:40:45.115Z,18.10
2023-02-21T11:43:22.541Z,18.00
2023-02-21T11:46:05.284Z,17.60
2023-02-21T11:48:56.963Z,17.40
2023-02-21T11:51:54.165Z,17.10
2023-02-21T11:54:27.070Z,16.80
2023-02-21T11:56:56.654Z,16.70
2023-02-21T11:59:43.054Z,16.60
2023-02-21T12:02:18.829Z,16.80
2023-02-21T12:05:05.232Z,16.80
2023-02-21T12:07:41.010Z,16.90
2023-02-21T12:10:32.824Z,16.90
2023-02-21T12:13:03.862Z,17.00
2023-02-21T12:16:13.726Z,16.90
2023-02-21T12:19:02.054Z,16.80
2023-02-21T12:22:10.930Z,16.50
2023-02-21T12:24:43.425Z,16.20
2023-02-21T12:27:15.211Z,15.90
2023-02-21T12:30:27.363Z,15.70
2023-02-21T12:33:26.024Z,15.60
2023-02-21T12:36:13.935Z,15.50
2023-02-21T12:39:11.823Z,15.40
2023-02-21T12:42:06.162Z,15.30
2023-02-21T12:45:10.808Z,15.20
2023-02-21T12:47:52.706Z,15.20
2023-02-21T12:50:24.664Z,15.10
2023-02-21T12:53:03.100Z,15.00
2023-02-21T12:55:40.795Z,14.90
2023-02-21T12:58:33.637Z,14.80
2023-02-21T13:01:22.336Z,14.70
2023-02-21T13:04:17.255Z,14.60
2023-02-21T13:06:59.010Z,14.60
2023-02-21T13:09:37.936Z,14.60
2023-02-21T13:12:19.562Z,14.60
2023-02-21T13:14:51.970Z,14.70
2023-02-21T13:17:19.909Z,14.80
2023-02-21T13:20:00.357Z,14.80
2023-02-21T13:23:23.410Z,14.70
2023-02-21T13:26:36.540Z,14.80
2023-02-21T13:29:03.718Z,14.80
2023-02-21T13:31:40.113Z,14.80
2023-02-21T13:34:10.449Z,14.80
2023-02-21T13:36:41.639Z,14.80
2023-02-21T13:39:32.187Z,14.90
2023-02-21T13:42:20.099Z,14.90
2023-02-21T13:44:54.238Z,14.90
2023-02-21T13:47:22.847Z,14.80
2023-02-21T13:49:53.938Z,14.70
2023-02-21T13:52:23.478Z,14.60
2023-02-21T13:55:15.392Z,14.60
2023-02-21T13:57:54.123Z,14.60
2023-02-21T14:00:27.775Z,14.60
2023-02-21T14:02:59.266Z,14.60
2023-02-21T14:05:27.370Z,14.60
2023-02-21T14:08:03.995Z,14.60
2023-02-21T14:10:57.232Z,14.60
2023-02-21T14:13:55.477Z,14.70
2023-02-21T14:16:53.693Z,15.00
2023-02-21T14:19:49.236Z,14.80
2023-02-21T14:22:21.819Z,14.50
2023-02-21T14:24:53.157Z,14.30
2023-02-21T14:27:19.840Z,14.10
2023-02-21T14:30:12.951Z,13.90
2023-02-21T14:32:48.753Z,13.70
2023-02-21T14:35:43.375Z,13.60
2023-02-21T14:38:21.625Z,13.60
2023-02-21T14:40:55.795Z,13.60
2023-02-21T14:43:58.272Z,13.60
2023-02-21T14:46:49.070Z,13.60
2023-02-21T14:49:46.685Z,13.70
2023-02-21T14:52:28.834Z,13.80
2023-02-21T14:55:21.454Z,13.90
2023-02-21T14:58:27.117Z,14.10
2023-02-21T15:01:05.276Z,14.20
2023-02-21T15:03:44.379Z,14.30
2023-02-21T15:06:18.397Z,14.30
2023-02-21T15:08:48.414Z,14.40
2023-02-21T15:11:26.147Z,14.40
2023-02-21T15:14:12.036Z,14.40
2023-02-21T15:16:44.057Z,14.30
2023-02-21T15:19:25.608Z,14.20
2023-02-21T15:22:11.277Z,14.10
2023-02-21T15:24:38.396Z,14.00
2023-02-21T15:27:10.736Z,13.90
2023-02-21T15:29:38.494Z,13.80
2023-02-21T15:32:06.628Z,13.70
2023-02-21T15:34:41.683Z,13.70
2023-02-21T15:37:23.635Z,13.60
2023-02-21T15:40:01.422Z,13.60
2023-02-21T15:42:28.670Z,13.50
2023-02-21T15:45:02.129Z,13.50
2023-02-21T15:47:31.044Z,13.50
2023-02-21T15:50:26.755Z,13.40
2023-02-21T15:52:53.900Z,13.40
2023-02-21T15:55:20.924Z,13.40
2023-02-21T15:58:01.095Z,13.40
2023-02-21T16:00:35.445Z,13.30
2023-02-21T16:03:30.261Z,13.30
2023-02-21T16:06:12.433Z,13.30
2023-02-21T16:08:51.881Z,13.20
2023-02-21T16:11:19.990Z,13.20
2023-02-21T16:13:47.181Z,13.20
2023-02-21T16:16:14.162Z,13.20
2023-02-21T16:18:41.186Z,13.20
2023-02-21T16:21:21.409Z,13.10
2023-02-21T16:23:48.668Z,13.10
2023-02-21T16:26:19.874Z,13.00
2023-02-21T16:28:46.762Z,13.00
2023-02-21T16:31:26.683Z,13.00
2023-02-21T16:33:53.983Z,13.00
2023-02-21T16:36:27.701Z,13.00
2023-02-21T16:38:58.628Z,13.00
2023-02-21T16:41:25.648Z,12.90
2023-02-21T16:43:52.430Z,12.90
2023-02-21T16:46:26.506Z,12.90
2023-02-21T16:48:55.394Z,12.90
2023-02-21T16:51:22.452Z,12.80
2023-02-21T16:53:49.368Z,12.80
2023-02-21T16:56:16.520Z,12.80
2023-02-21T16:58:48.594Z,12.70
2023-02-21T17:01:21.813Z,12.70
2023-02-21T17:03:48.565Z,12.70
2023-02-21T17:06:20.203Z,12.60
2023-02-21T17:08:47.412Z,12.60
2023-02-21T17:11:14.738Z,12.60
2023-02-21T17:13:41.615Z,12.60
2023-02-21T17:16:19.249Z,12.50
2023-02-21T17:18:46.679Z,12.50
2023-02-21T17:21:13.663Z,12.50
2023-02-21T17:23:41.617Z,12.40
2023-02-21T17:26:08.546Z,12.40
2023-02-21T17:28:37.593Z,12.40
2023-02-21T17:31:04.613Z,12.40
2023-02-21T17:33:32.930Z,12.40
2023-02-21T17:35:59.717Z,12.40
2023-02-21T17:38:26.520Z,12.40
2023-02-21T17:40:53.495Z,12.50
2023-02-21T17:43:20.335Z,12.50
2023-02-21T17:45:47.177Z,12.50
2023-02-21T17:48:13.952Z,12.50
2023-02-21T17:50:41.460Z,12.40
2023-02-21T17:53:08.786Z,12.40
2023-02-21T17:55:35.520Z,12.40
2023-02-21T17:58:02.525Z,12.40
2023-02-21T18:00:31.570Z,12.30
2023-02-21T18:02:59.363Z,12.30
2023-02-21T18:05:26.186Z,12.30
2023-02-21T18:07:53.772Z,12.20
2023-02-21T18:10:23.530Z,12.20
2023-02-21T18:12:51.525Z,12.20
2023-02-21T18:15:21.568Z,12.20
2023-02-21T18:17:48.427Z,12.20
2023-02-21T18:20:16.804Z,12.20
2023-02-21T18:22:44.329Z,12.20
2023-02-21T18:25:14.427Z,12.20
2023-02-21T18:27:41.314Z,12.30
2023-02-21T18:30:08.724Z,12.20
2023-02-21T18:32:35.959Z,12.30
2023-02-21T18:35:02.865Z,12.30
2023-02-21T18:37:29.623Z,12.20
2023-02-21T18:39:56.676Z,12.20
2023-02-21T18:42:24.055Z,12.10
2023-02-21T18:44:53.570Z,12.10
2023-02-21T18:47:20.510Z,12.10
2023-02-21T18:49:48.241Z,12.10
2023-02-21T18:52:16.363Z,12.20
2023-02-21T18:54:49.704Z,12.20
2023-02-21T18:57:21.825Z,12.10
2023-02-21T18:59:50.740Z,12.10
2023-02-21T19:02:18.829Z,12.10
2023-02-21T19:04:45.920Z,12.00
2023-02-21T19:07:14.516Z,12.00
2023-02-21T19:09:41.757Z,12.00
2023-02-21T19:12:08.639Z,12.00
2023-02-21T19:14:36.962Z,12.10
2023-02-21T19:17:06.271Z,12.10
2023-02-21T19:19:34.907Z,12.10
2023-02-21T19:22:01.845Z,12.10
2023-02-21T19:24:28.621Z,12.10
2023-02-21T19:26:55.851Z,12.10
2023-02-21T19:29:23.021Z,12.00
2023-02-21T19:31:50.064Z,12.00
2023-02-21T19:34:17.260Z,12.00
2023-02-21T19:36:44.926Z,11.90
2023-02-21T19:39:12.527Z,11.80
2023-02-21T19:41:40.363Z,11.80
2023-02-21T19:44:08.366Z,11.80
2023-02-21T19:46:35.402Z,11.70
2023-02-21T19:49:02.190Z,11.70
2023-02-21T19:51:31.626Z,11.70
2023-02-21T19:53:59.165Z,11.70
2023-02-21T19:56:29.056Z,11.70
2023-02-21T19:58:55.920Z,11.60
2023-02-21T20:01:25.361Z,11.60
2023-02-21T20:03:52.614Z,11.50
2023-02-21T20:06:19.473Z,11.50
2023-02-21T20:08:48.227Z,11.40
2023-02-21T20:11:19.197Z,11.40
2023-02-21T20:13:46.166Z,11.30
2023-02-21T20:16:15.550Z,11.20
2023-02-21T20:18:46.076Z,11.10
2023-02-21T20:21:27.696Z,11.00
2023-02-21T20:23:55.395Z,10.90
2023-02-21T20:26:25.448Z,10.90
2023-02-21T20:28:53.496Z,10.90
2023-02-21T20:31:23.812Z,10.80
2023-02-21T20:33:50.655Z,10.70
2023-02-21T20:36:18.610Z,10.70
2023-02-21T20:38:45.366Z,10.60
2023-02-21T20:41:13.758Z,10.60
2023-02-21T20:43:41.353Z,10.60
2023-02-21T20:46:10.185Z,10.60
2023-02-21T20:48:38.944Z,10.60
2023-02-21T20:51:08.784Z,10.60
2023-02-21T20:53:36.652Z,10.60
2023-02-21T20:56:04.977Z,10.60
2023-02-21T20:58:31.738Z,10.50
2023-02-21T21:00:58.470Z,10.50
2023-02-21T21:03:29.341Z,10.60
2023-02-21T21:05:59.879Z,10.60
2023-02-21T21:08:26.857Z,10.60
2023-02-21T21:10:53.704Z,10.70
2023-02-21T21:13:20.713Z,10.70
2023-02-21T21:15:47.437Z,10.70
2023-02-21T21:18:14.325Z,10.70
2023-02-21T21:20:41.360Z,10.70
2023-02-21T21:23:08.752Z,10.80
2023-02-21T21:25:35.848Z,10.80
2023-02-21T21:28:06.426Z,10.80
2023-02-21T21:30:33.443Z,10.80
2023-02-21T21:33:00.994Z,10.80
2023-02-21T21:35:30.065Z,10.80
2023-02-21T21:38:02.841Z,10.70
2023-02-21T21:40:30.029Z,10.70
2023-02-21T21:42:56.798Z,10.70
2023-02-21T21:45:27.612Z,10.70
2023-02-21T21:47:59.543Z,10.70
2023-02-21T21:50:26.749Z,10.70
2023-02-21T21:52:57.482Z,10.70
2023-02-21T21:55:27.492Z,10.70
2023-02-21T21:57:55.746Z,10.70
2023-02-21T22:00:26.005Z,10.70
2023-02-21T22:02:58.779Z,10.70
2023-02-21T22:05:32.977Z,10.70
2023-02-21T22:08:00.137Z,10.60
2023-02-21T22:10:27.565Z,10.40
2023-02-21T22:12:56.521Z,10.30
2023-02-21T22:15:28.062Z,10.30
2023-02-21T22:17:55.867Z,10.30
2023-02-21T22:20:28.460Z,10.20
2023-02-21T22:22:59.656Z,10.10
2023-02-21T22:25:30.417Z,10.10
2023-02-21T22:27:58.779Z,10.00
2023-02-21T22:30:25.700Z,9.90
2023-02-21T22:32:52.686Z,9.70
2023-02-21T22:35:20.548Z,9.60
2023-02-21T22:37:50.494Z,9.50
2023-02-21T22:40:24.251Z,9.40
2023-02-21T22:42:55.579Z,9.30
2023-02-21T22:45:23.800Z,9.30
2023-02-21T22:47:52.423Z,9.30
2023-02-21T22:50:20.790Z,9.20
2023-02-21T22:53:01.364Z,9.10
2023-02-21T22:55:29.640Z,9.10
2023-02-21T22:57:58.226Z,8.90
2023-02-21T23:00:33.011Z,8.80
2023-02-21T23:03:01.284Z,8.70
2023-02-21T23:05:28.364Z,8.60
2023-02-21T23:07:59.954Z,8.40
2023-02-21T23:10:28.668Z,8.30
2023-02-21T23:13:00.800Z,8.20
2023-02-21T23:15:27.991Z,8.20
2023-02-21T23:17:54.944Z,8.10
2023-02-21T23:20:26.540Z,8.00
2023-02-21T23:22:54.485Z,7.90
2023-02-21T23:25:27.175Z,7.80
2023-02-21T23:28:02.306Z,7.80
2023-02-21T23:30:36.257Z,7.70
2023-02-21T23:33:06.304Z,7.50
2023-02-21T23:35:34.859Z,7.40
2023-02-21T23:38:02.038Z,7.40
2023-02-21T23:40:39.267Z,7.30
2023-02-21T23:43:13.443Z,7.20
2023-02-21T23:45:41.012Z,7.20
2023-02-21T23:48:15.411Z,7.10
2023-02-21T23:50:47.172Z,7.10
2023-02-21T23:53:23.186Z,7.00
2023-02-21T23:55:57.510Z,6.90
2023-02-21T23:58:27.461Z,6.90
